sensor_id;sensor_type;location;lat;lon;timestamp;P1;durP1;ratioP1;P2;durP2;ratioP2
64353;SDS011;50681;53.334;-6.536;2022-07-29T00:02:10;4.80;;;2.97;;
64353;SDS011;50681;53.334;-6.536;2022-07-29T00:04:36;6.17;;;3.00;;
64353;SDS011;50681;53.334;-6.536;2022-07-29T00:07:02;5.63;;;2.90;;
64353;SDS011;50681;53.334;-6.536;2022-07-29T00:09:28;9.63;;;2.80;;
64353;SDS011;50681;53.334;-6.536;2022-07-29T00:11:54;6.80;;;3.00;;
64353;SDS011;50681;53.334;-6.536;2022-07-29T00:14:23;10.48;;;3.13;;
64353;SDS011;50681;53.334;-6.536;2022-07-29T00:16:48;12.20;;;3.60;;
64353;SDS011;50681;53.334;-6.536;2022-07-29T00:19:14;8.90;;;2.70;;
64353;SDS011;50681;53.334;-6.536;2022-07-29T00:21:39;7.03;;;2.93;;
64353;SDS011;50681;53.334;-6.536;2022-07-29T00:24:05;6.87;;;2.83;;
64353;SDS011;50681;53.334;-6.536;2022-07-29T00:26:30;6.13;;;2.75;;
64353;SDS011;50681;53.334;-6.536;2022-07-29T00:29:01;6.15;;;2.60;;
64353;SDS011;50681;53.334;-6.536;2022-07-29T00:31:28;6.75;;;2.42;;
64353;SDS011;50681;53.334;-6.536;2022-07-29T00:33:53;4.88;;;2.58;;
64353;SDS011;50681;53.334;-6.536;2022-07-29T00:36:19;7.65;;;3.17;;
64353;SDS011;50681;53.334;-6.536;2022-07-29T00:38:48;5.07;;;2.58;;
64353;SDS011;50681;53.334;-6.536;2022-07-29T00:41:15;12.20;;;2.33;;
64353;SDS011;50681;53.334;-6.536;2022-07-29T00:43:42;6.07;;;2.60;;
64353;SDS011;50681;53.334;-6.536;2022-07-29T00:46:07;8.95;;;2.83;;
64353;SDS011;50681;53.334;-6.536;2022-07-29T00:48:33;5.23;;;2.40;;
64353;SDS011;50681;53.334;-6.536;2022-07-29T00:50:59;8.83;;;2.50;;
64353;SDS011;50681;53.334;-6.536;2022-07-29T00:53:27;8.02;;;2.72;;
64353;SDS011;50681;53.334;-6.536;2022-07-29T00:55:55;5.23;;;2.33;;
64353;SDS011;50681;53.334;-6.536;2022-07-29T00:58:22;4.22;;;2.22;;
64353;SDS011;50681;53.334;-6.536;2022-07-29T01:00:48;7.43;;;2.75;;
64353;SDS011;50681;53.334;-6.536;2022-07-29T01:03:13;5.45;;;2.38;;
64353;SDS011;50681;53.334;-6.536;2022-07-29T01:05:39;5.43;;;2.43;;
64353;SDS011;50681;53.334;-6.536;2022-07-29T01:08:06;11.10;;;2.40;;
64353;SDS011;50681;53.334;-6.536;2022-07-29T01:13:02;5.55;;;2.47;;
64353;SDS011;50681;53.334;-6.536;2022-07-29T01:15:29;4.10;;;2.05;;
64353;SDS011;50681;53.334;-6.536;2022-07-29T01:18:07;4.53;;;2.13;;
64353;SDS011;50681;53.334;-6.536;2022-07-29T01:31:52;4.63;;;2.17;;
64353;SDS011;50681;53.334;-6.536;2022-07-29T01:34:24;7.55;;;2.38;;
64353;SDS011;50681;53.334;-6.536;2022-07-29T01:36:55;4.15;;;2.28;;
64353;SDS011;50681;53.334;-6.536;2022-07-29T01:39:36;5.90;;;2.40;;
64353;SDS011;50681;53.334;-6.536;2022-07-29T01:42:12;6.57;;;2.22;;
64353;SDS011;50681;53.334;-6.536;2022-07-29T01:44:46;4.28;;;2.20;;
64353;SDS011;50681;53.334;-6.536;2022-07-29T01:47:31;3.97;;;1.90;;
64353;SDS011;50681;53.334;-6.536;2022-07-29T01:50:04;10.50;;;2.53;;
64353;SDS011;50681;53.334;-6.536;2022-07-29T01:52:34;4.93;;;2.08;;
64353;SDS011;50681;53.334;-6.536;2022-07-29T01:55:07;5.32;;;2.10;;
64353;SDS011;50681;53.334;-6.536;2022-07-29T01:57:38;5.38;;;2.63;;
64353;SDS011;50681;53.334;-6.536;2022-07-29T02:00:07;8.93;;;2.65;;
64353;SDS011;50681;53.334;-6.536;2022-07-29T02:05:00;8.23;;;2.80;;
64353;SDS011;50681;53.334;-6.536;2022-07-29T02:07:28;5.65;;;2.50;;
64353;SDS011;50681;53.334;-6.536;2022-07-29T02:09:56;7.88;;;2.55;;
64353;SDS011;50681;53.334;-6.536;2022-07-29T02:12:25;9.63;;;2.60;;
64353;SDS011;50681;53.334;-6.536;2022-07-29T02:14:51;7.10;;;2.38;;
64353;SDS011;50681;53.334;-6.536;2022-07-29T02:17:21;7.82;;;2.63;;
64353;SDS011;50681;53.334;-6.536;2022-07-29T02:19:49;6.65;;;2.30;;
64353;SDS011;50681;53.334;-6.536;2022-07-29T02:22:17;6.90;;;2.20;;
64353;SDS011;50681;53.334;-6.536;2022-07-29T02:24:43;5.47;;;2.50;;
64353;SDS011;50681;53.334;-6.536;2022-07-29T02:27:09;4.13;;;2.50;;
64353;SDS011;50681;53.334;-6.536;2022-07-29T02:29:36;3.80;;;2.40;;
64353;SDS011;50681;53.334;-6.536;2022-07-29T02:32:02;4.75;;;2.33;;
64353;SDS011;50681;53.334;-6.536;2022-07-29T02:34:29;9.65;;;2.45;;
64353;SDS011;50681;53.334;-6.536;2022-07-29T02:36:58;5.53;;;2.63;;
64353;SDS011;50681;53.334;-6.536;2022-07-29T02:39:24;4.13;;;2.30;;
64353;SDS011;50681;53.334;-6.536;2022-07-29T02:41:55;4.57;;;2.22;;
64353;SDS011;50681;53.334;-6.536;2022-07-29T02:44:26;9.32;;;2.67;;
64353;SDS011;50681;53.334;-6.536;2022-07-29T02:46:53;6.27;;;2.50;;
64353;SDS011;50681;53.334;-6.536;2022-07-29T02:50:11;7.72;;;2.83;;
64353;SDS011;50681;53.334;-6.536;2022-07-29T02:52:32;6.03;;;2.78;;
64353;SDS011;50681;53.334;-6.536;2022-07-29T02:57:35;4.38;;;2.50;;
64353;SDS011;50681;53.334;-6.536;2022-07-29T03:00:06;13.40;;;3.22;;
64353;SDS011;50681;53.334;-6.536;2022-07-29T03:02:34;7.05;;;3.40;;
64353;SDS011;50681;53.334;-6.536;2022-07-29T03:05:03;4.82;;;3.33;;
64353;SDS011;50681;53.334;-6.536;2022-07-29T03:07:31;5.95;;;3.58;;
64353;SDS011;50681;53.334;-6.536;2022-07-29T03:09:57;10.65;;;4.47;;
64353;SDS011;50681;53.334;-6.536;2022-07-29T03:12:23;11.90;;;4.25;;
64353;SDS011;50681;53.334;-6.536;2022-07-29T03:14:50;6.68;;;3.63;;
64353;SDS011;50681;53.334;-6.536;2022-07-29T03:17:17;7.32;;;3.92;;
64353;SDS011;50681;53.334;-6.536;2022-07-29T03:19:43;10.45;;;4.05;;
64353;SDS011;50681;53.334;-6.536;2022-07-29T03:22:09;9.52;;;4.57;;
64353;SDS011;50681;53.334;-6.536;2022-07-29T03:24:35;6.90;;;4.75;;
64353;SDS011;50681;53.334;-6.536;2022-07-29T03:27:02;8.23;;;4.25;;
64353;SDS011;50681;53.334;-6.536;2022-07-29T03:29:28;7.65;;;4.40;;
64353;SDS011;50681;53.334;-6.536;2022-07-29T03:31:54;10.52;;;4.38;;
64353;SDS011;50681;53.334;-6.536;2022-07-29T03:34:20;6.53;;;4.28;;
64353;SDS011;50681;53.334;-6.536;2022-07-29T03:36:46;9.25;;;4.70;;
64353;SDS011;50681;53.334;-6.536;2022-07-29T03:39:12;8.80;;;4.35;;
64353;SDS011;50681;53.334;-6.536;2022-07-29T03:41:42;12.00;;;4.80;;
64353;SDS011;50681;53.334;-6.536;2022-07-29T03:44:11;8.73;;;4.25;;
64353;SDS011;50681;53.334;-6.536;2022-07-29T03:46:38;9.32;;;4.30;;
64353;SDS011;50681;53.334;-6.536;2022-07-29T03:49:04;11.00;;;4.32;;
64353;SDS011;50681;53.334;-6.536;2022-07-29T03:51:33;9.55;;;4.13;;
64353;SDS011;50681;53.334;-6.536;2022-07-29T03:54:03;7.78;;;3.95;;
64353;SDS011;50681;53.334;-6.536;2022-07-29T03:56:29;8.77;;;3.78;;
64353;SDS011;50681;53.334;-6.536;2022-07-29T03:58:57;10.40;;;4.20;;
64353;SDS011;50681;53.334;-6.536;2022-07-29T04:01:24;11.88;;;4.10;;
64353;SDS011;50681;53.334;-6.536;2022-07-29T04:03:50;8.82;;;3.80;;
64353;SDS011;50681;53.334;-6.536;2022-07-29T04:06:16;5.57;;;3.75;;
64353;SDS011;50681;53.334;-6.536;2022-07-29T04:08:41;15.73;;;4.27;;
64353;SDS011;50681;53.334;-6.536;2022-07-29T04:11:07;14.47;;;4.10;;
64353;SDS011;50681;53.334;-6.536;2022-07-29T04:13:32;12.03;;;4.60;;
64353;SDS011;50681;53.334;-6.536;2022-07-29T04:15:58;13.03;;;4.33;;
64353;SDS011;50681;53.334;-6.536;2022-07-29T04:18:23;10.90;;;4.60;;
64353;SDS011;50681;53.334;-6.536;2022-07-29T04:20:49;6.70;;;4.32;;
64353;SDS011;50681;53.334;-6.536;2022-07-29T04:23:15;10.20;;;4.90;;
64353;SDS011;50681;53.334;-6.536;2022-07-29T04:25:41;13.13;;;4.70;;
64353;SDS011;50681;53.334;-6.536;2022-07-29T04:28:07;11.63;;;4.85;;
64353;SDS011;50681;53.334;-6.536;2022-07-29T04:30:34;9.50;;;4.65;;
64353;SDS011;50681;53.334;-6.536;2022-07-29T04:33:01;11.00;;;4.63;;
64353;SDS011;50681;53.334;-6.536;2022-07-29T04:35:33;11.57;;;5.38;;
64353;SDS011;50681;53.334;-6.536;2022-07-29T04:38:00;12.77;;;5.65;;
64353;SDS011;50681;53.334;-6.536;2022-07-29T04:40:25;12.67;;;4.83;;
64353;SDS011;50681;53.334;-6.536;2022-07-29T04:42:51;12.33;;;5.27;;
64353;SDS011;50681;53.334;-6.536;2022-07-29T04:45:16;7.67;;;4.77;;
64353;SDS011;50681;53.334;-6.536;2022-07-29T04:47:42;8.85;;;5.13;;
64353;SDS011;50681;53.334;-6.536;2022-07-29T04:50:08;10.37;;;5.10;;
64353;SDS011;50681;53.334;-6.536;2022-07-29T04:52:34;16.98;;;5.35;;
64353;SDS011;50681;53.334;-6.536;2022-07-29T04:55:00;13.80;;;5.05;;
64353;SDS011;50681;53.334;-6.536;2022-07-29T04:57:26;9.70;;;5.10;;
64353;SDS011;50681;53.334;-6.536;2022-07-29T04:59:51;7.87;;;4.57;;
64353;SDS011;50681;53.334;-6.536;2022-07-29T05:02:16;10.17;;;5.30;;
64353;SDS011;50681;53.334;-6.536;2022-07-29T05:04:42;9.73;;;4.87;;
64353;SDS011;50681;53.334;-6.536;2022-07-29T05:07:07;10.43;;;4.60;;
64353;SDS011;50681;53.334;-6.536;2022-07-29T05:09:33;13.93;;;5.07;;
64353;SDS011;50681;53.334;-6.536;2022-07-29T05:11:58;12.83;;;4.53;;
64353;SDS011;50681;53.334;-6.536;2022-07-29T05:14:24;8.47;;;4.90;;
64353;SDS011;50681;53.334;-6.536;2022-07-29T05:16:49;9.13;;;4.37;;
64353;SDS011;50681;53.334;-6.536;2022-07-29T05:19:16;10.93;;;4.53;;
64353;SDS011;50681;53.334;-6.536;2022-07-29T05:21:42;11.93;;;4.88;;
64353;SDS011;50681;53.334;-6.536;2022-07-29T05:24:07;13.13;;;5.03;;
64353;SDS011;50681;53.334;-6.536;2022-07-29T05:26:33;11.80;;;4.93;;
64353;SDS011;50681;53.334;-6.536;2022-07-29T05:28:58;13.43;;;4.90;;
64353;SDS011;50681;53.334;-6.536;2022-07-29T05:31:24;6.87;;;4.30;;
64353;SDS011;50681;53.334;-6.536;2022-07-29T05:33:49;11.07;;;4.60;;
64353;SDS011;50681;53.334;-6.536;2022-07-29T05:36:14;7.63;;;4.83;;
64353;SDS011;50681;53.334;-6.536;2022-07-29T05:38:40;10.53;;;4.60;;
64353;SDS011;50681;53.334;-6.536;2022-07-29T05:41:05;9.37;;;4.53;;
64353;SDS011;50681;53.334;-6.536;2022-07-29T05:43:31;7.93;;;3.80;;
64353;SDS011;50681;53.334;-6.536;2022-07-29T05:45:57;6.83;;;3.93;;
64353;SDS011;50681;53.334;-6.536;2022-07-29T05:48:22;10.17;;;4.00;;
64353;SDS011;50681;53.334;-6.536;2022-07-29T05:50:48;13.75;;;4.43;;
64353;SDS011;50681;53.334;-6.536;2022-07-29T05:53:13;9.38;;;4.78;;
64353;SDS011;50681;53.334;-6.536;2022-07-29T05:55:39;10.33;;;4.40;;
64353;SDS011;50681;53.334;-6.536;2022-07-29T05:58:04;8.73;;;4.33;;
64353;SDS011;50681;53.334;-6.536;2022-07-29T06:00:30;7.70;;;4.40;;
64353;SDS011;50681;53.334;-6.536;2022-07-29T06:02:55;6.60;;;4.10;;
64353;SDS011;50681;53.334;-6.536;2022-07-29T06:05:21;8.85;;;3.90;;
64353;SDS011;50681;53.334;-6.536;2022-07-29T06:07:47;6.43;;;3.50;;
64353;SDS011;50681;53.334;-6.536;2022-07-29T06:10:12;8.67;;;3.57;;
64353;SDS011;50681;53.334;-6.536;2022-07-29T06:12:38;8.37;;;3.20;;
64353;SDS011;50681;53.334;-6.536;2022-07-29T06:15:03;7.35;;;3.47;;
64353;SDS011;50681;53.334;-6.536;2022-07-29T06:17:29;10.48;;;3.53;;
64353;SDS011;50681;53.334;-6.536;2022-07-29T06:19:55;8.33;;;3.50;;
64353;SDS011;50681;53.334;-6.536;2022-07-29T06:22:20;10.50;;;3.60;;
64353;SDS011;50681;53.334;-6.536;2022-07-29T06:24:45;12.10;;;4.20;;
64353;SDS011;50681;53.334;-6.536;2022-07-29T06:27:11;12.60;;;3.40;;
64353;SDS011;50681;53.334;-6.536;2022-07-29T06:29:36;5.25;;;3.35;;
64353;SDS011;50681;53.334;-6.536;2022-07-29T06:32:02;11.65;;;5.50;;
64353;SDS011;50681;53.334;-6.536;2022-07-29T06:34:28;7.13;;;3.92;;
64353;SDS011;50681;53.334;-6.536;2022-07-29T06:36:54;6.57;;;3.87;;
64353;SDS011;50681;53.334;-6.536;2022-07-29T06:39:19;5.63;;;3.20;;
64353;SDS011;50681;53.334;-6.536;2022-07-29T06:41:48;7.13;;;4.03;;
64353;SDS011;50681;53.334;-6.536;2022-07-29T06:44:15;9.40;;;3.40;;
64353;SDS011;50681;53.334;-6.536;2022-07-29T06:46:41;7.97;;;3.15;;
64353;SDS011;50681;53.334;-6.536;2022-07-29T06:49:06;7.97;;;3.17;;
64353;SDS011;50681;53.334;-6.536;2022-07-29T06:51:32;18.70;;;3.67;;
64353;SDS011;50681;53.334;-6.536;2022-07-29T06:53:58;12.73;;;3.90;;
64353;SDS011;50681;53.334;-6.536;2022-07-29T06:56:24;8.55;;;3.55;;
64353;SDS011;50681;53.334;-6.536;2022-07-29T06:58:50;7.40;;;3.53;;
64353;SDS011;50681;53.334;-6.536;2022-07-29T07:01:15;12.60;;;3.58;;
64353;SDS011;50681;53.334;-6.536;2022-07-29T07:03:41;6.60;;;2.90;;
64353;SDS011;50681;53.334;-6.536;2022-07-29T07:06:09;14.35;;;3.35;;
64353;SDS011;50681;53.334;-6.536;2022-07-29T07:08:34;4.72;;;2.65;;
64353;SDS011;50681;53.334;-6.536;2022-07-29T07:10:59;7.10;;;2.70;;
64353;SDS011;50681;53.334;-6.536;2022-07-29T07:13:25;6.90;;;2.73;;
64353;SDS011;50681;53.334;-6.536;2022-07-29T07:15:51;7.88;;;2.50;;
64353;SDS011;50681;53.334;-6.536;2022-07-29T07:18:17;8.05;;;2.72;;
64353;SDS011;50681;53.334;-6.536;2022-07-29T07:20:43;14.48;;;2.97;;
64353;SDS011;50681;53.334;-6.536;2022-07-29T07:23:09;10.07;;;3.20;;
64353;SDS011;50681;53.334;-6.536;2022-07-29T07:25:35;8.23;;;3.38;;
64353;SDS011;50681;53.334;-6.536;2022-07-29T07:28:00;13.85;;;3.60;;
64353;SDS011;50681;53.334;-6.536;2022-07-29T07:30:26;8.65;;;3.75;;
64353;SDS011;50681;53.334;-6.536;2022-07-29T07:32:52;11.60;;;3.47;;
64353;SDS011;50681;53.334;-6.536;2022-07-29T07:35:18;9.43;;;3.42;;
64353;SDS011;50681;53.334;-6.536;2022-07-29T07:37:43;13.68;;;3.28;;
64353;SDS011;50681;53.334;-6.536;2022-07-29T07:40:09;15.63;;;3.53;;
64353;SDS011;50681;53.334;-6.536;2022-07-29T07:42:39;10.43;;;3.08;;
64353;SDS011;50681;53.334;-6.536;2022-07-29T07:47:31;15.55;;;2.97;;
64353;SDS011;50681;53.334;-6.536;2022-07-29T07:49:57;12.10;;;2.63;;
64353;SDS011;50681;53.334;-6.536;2022-07-29T07:52:22;6.90;;;2.90;;
64353;SDS011;50681;53.334;-6.536;2022-07-29T07:54:48;7.70;;;2.63;;
64353;SDS011;50681;53.334;-6.536;2022-07-29T07:57:14;4.72;;;2.75;;
64353;SDS011;50681;53.334;-6.536;2022-07-29T07:59:40;8.25;;;3.00;;
64353;SDS011;50681;53.334;-6.536;2022-07-29T08:02:06;7.38;;;2.80;;
64353;SDS011;50681;53.334;-6.536;2022-07-29T08:06:58;6.05;;;2.35;;
64353;SDS011;50681;53.334;-6.536;2022-07-29T08:09:24;6.93;;;2.25;;
64353;SDS011;50681;53.334;-6.536;2022-07-29T08:11:51;6.72;;;2.17;;
64353;SDS011;50681;53.334;-6.536;2022-07-29T08:14:17;8.35;;;2.38;;
64353;SDS011;50681;53.334;-6.536;2022-07-29T08:16:43;4.63;;;1.90;;
64353;SDS011;50681;53.334;-6.536;2022-07-29T08:19:08;12.30;;;2.22;;
64353;SDS011;50681;53.334;-6.536;2022-07-29T08:21:34;8.27;;;2.50;;
64353;SDS011;50681;53.334;-6.536;2022-07-29T08:24:00;9.88;;;2.28;;
64353;SDS011;50681;53.334;-6.536;2022-07-29T08:26:44;7.60;;;2.13;;
64353;SDS011;50681;53.334;-6.536;2022-07-29T08:29:10;5.57;;;2.63;;
64353;SDS011;50681;53.334;-6.536;2022-07-29T08:31:36;9.82;;;2.42;;
64353;SDS011;50681;53.334;-6.536;2022-07-29T08:34:03;9.52;;;2.03;;
64353;SDS011;50681;53.334;-6.536;2022-07-29T08:36:29;4.40;;;1.80;;
64353;SDS011;50681;53.334;-6.536;2022-07-29T08:38:55;5.13;;;1.88;;
64353;SDS011;50681;53.334;-6.536;2022-07-29T08:41:21;5.30;;;1.55;;
64353;SDS011;50681;53.334;-6.536;2022-07-29T08:43:47;5.50;;;1.58;;
64353;SDS011;50681;53.334;-6.536;2022-07-29T08:46:13;6.35;;;2.17;;
64353;SDS011;50681;53.334;-6.536;2022-07-29T08:48:39;6.97;;;1.92;;
64353;SDS011;50681;53.334;-6.536;2022-07-29T08:51:06;5.53;;;2.00;;
64353;SDS011;50681;53.334;-6.536;2022-07-29T08:53:33;8.63;;;1.92;;
64353;SDS011;50681;53.334;-6.536;2022-07-29T08:55:59;5.72;;;1.80;;
64353;SDS011;50681;53.334;-6.536;2022-07-29T08:58:26;6.32;;;1.80;;
64353;SDS011;50681;53.334;-6.536;2022-07-29T09:00:57;7.93;;;1.75;;
64353;SDS011;50681;53.334;-6.536;2022-07-29T09:03:29;4.25;;;1.80;;
64353;SDS011;50681;53.334;-6.536;2022-07-29T09:05:55;6.22;;;1.70;;
64353;SDS011;50681;53.334;-6.536;2022-07-29T09:08:21;12.10;;;1.85;;
64353;SDS011;50681;53.334;-6.536;2022-07-29T09:10:47;4.03;;;1.60;;
64353;SDS011;50681;53.334;-6.536;2022-07-29T09:13:14;5.10;;;1.90;;
64353;SDS011;50681;53.334;-6.536;2022-07-29T09:15:39;11.27;;;2.03;;
64353;SDS011;50681;53.334;-6.536;2022-07-29T09:18:04;12.77;;;1.90;;
64353;SDS011;50681;53.334;-6.536;2022-07-29T09:20:30;8.20;;;2.07;;
64353;SDS011;50681;53.334;-6.536;2022-07-29T09:23:16;10.82;;;1.80;;
64353;SDS011;50681;53.334;-6.536;2022-07-29T09:25:41;7.30;;;1.73;;
64353;SDS011;50681;53.334;-6.536;2022-07-29T09:28:08;12.07;;;2.17;;
64353;SDS011;50681;53.334;-6.536;2022-07-29T09:30:52;3.88;;;1.40;;
64353;SDS011;50681;53.334;-6.536;2022-07-29T09:33:22;6.10;;;1.73;;
64353;SDS011;50681;53.334;-6.536;2022-07-29T09:35:58;13.05;;;1.75;;
64353;SDS011;50681;53.334;-6.536;2022-07-29T09:38:34;5.40;;;1.27;;
64353;SDS011;50681;53.334;-6.536;2022-07-29T09:41:02;6.43;;;1.58;;
64353;SDS011;50681;53.334;-6.536;2022-07-29T09:43:29;7.13;;;1.60;;
64353;SDS011;50681;53.334;-6.536;2022-07-29T09:45:54;6.45;;;1.60;;
64353;SDS011;50681;53.334;-6.536;2022-07-29T09:48:21;8.10;;;1.38;;
64353;SDS011;50681;53.334;-6.536;2022-07-29T09:50:49;5.72;;;1.70;;
64353;SDS011;50681;53.334;-6.536;2022-07-29T09:53:34;5.57;;;1.70;;
64353;SDS011;50681;53.334;-6.536;2022-07-29T09:56:02;4.53;;;1.63;;
64353;SDS011;50681;53.334;-6.536;2022-07-29T09:58:28;8.65;;;2.72;;
64353;SDS011;50681;53.334;-6.536;2022-07-29T10:00:56;7.32;;;1.88;;
64353;SDS011;50681;53.334;-6.536;2022-07-29T10:03:21;8.63;;;1.88;;
64353;SDS011;50681;53.334;-6.536;2022-07-29T10:08:48;6.55;;;1.73;;
64353;SDS011;50681;53.334;-6.536;2022-07-29T10:11:17;4.68;;;1.83;;
64353;SDS011;50681;53.334;-6.536;2022-07-29T10:13:45;4.82;;;1.20;;
64353;SDS011;50681;53.334;-6.536;2022-07-29T10:16:12;2.88;;;1.20;;
64353;SDS011;50681;53.334;-6.536;2022-07-29T10:18:39;3.50;;;1.42;;
64353;SDS011;50681;53.334;-6.536;2022-07-29T10:21:05;6.38;;;1.60;;
64353;SDS011;50681;53.334;-6.536;2022-07-29T10:23:32;6.90;;;1.90;;
64353;SDS011;50681;53.334;-6.536;2022-07-29T10:25:59;3.70;;;1.30;;
64353;SDS011;50681;53.334;-6.536;2022-07-29T10:28:25;5.88;;;1.42;;
64353;SDS011;50681;53.334;-6.536;2022-07-29T10:30:50;6.45;;;2.00;;
64353;SDS011;50681;53.334;-6.536;2022-07-29T10:46:40;10.88;;;2.45;;
64353;SDS011;50681;53.334;-6.536;2022-07-29T10:49:13;11.18;;;1.98;;
64353;SDS011;50681;53.334;-6.536;2022-07-29T10:59:40;4.03;;;1.17;;
64353;SDS011;50681;53.334;-6.536;2022-07-29T11:07:22;7.75;;;1.67;;
64353;SDS011;50681;53.334;-6.536;2022-07-29T11:15:00;3.00;;;1.30;;
64353;SDS011;50681;53.334;-6.536;2022-07-29T11:17:27;2.38;;;1.17;;
64353;SDS011;50681;53.334;-6.536;2022-07-29T11:22:57;3.45;;;1.48;;
64353;SDS011;50681;53.334;-6.536;2022-07-29T11:25:23;3.78;;;1.10;;
64353;SDS011;50681;53.334;-6.536;2022-07-29T11:27:48;5.20;;;1.33;;
64353;SDS011;50681;53.334;-6.536;2022-07-29T11:30:14;4.28;;;1.25;;
64353;SDS011;50681;53.334;-6.536;2022-07-29T11:32:40;3.58;;;1.20;;
64353;SDS011;50681;53.334;-6.536;2022-07-29T11:37:46;4.50;;;1.30;;
64353;SDS011;50681;53.334;-6.536;2022-07-29T11:40:32;4.25;;;1.23;;
64353;SDS011;50681;53.334;-6.536;2022-07-29T11:42:58;3.72;;;1.40;;
64353;SDS011;50681;53.334;-6.536;2022-07-29T11:45:23;3.50;;;1.40;;
64353;SDS011;50681;53.334;-6.536;2022-07-29T11:47:54;6.00;;;1.40;;
64353;SDS011;50681;53.334;-6.536;2022-07-29T11:50:33;3.67;;;1.30;;
64353;SDS011;50681;53.334;-6.536;2022-07-29T11:53:03;2.35;;;1.20;;
64353;SDS011;50681;53.334;-6.536;2022-07-29T11:55:36;3.13;;;1.17;;
64353;SDS011;50681;53.334;-6.536;2022-07-29T11:58:03;2.65;;;1.13;;
64353;SDS011;50681;53.334;-6.536;2022-07-29T12:00:32;6.10;;;1.25;;
64353;SDS011;50681;53.334;-6.536;2022-07-29T12:03:02;3.97;;;1.20;;
64353;SDS011;50681;53.334;-6.536;2022-07-29T12:05:36;3.78;;;1.23;;
64353;SDS011;50681;53.334;-6.536;2022-07-29T12:08:04;5.15;;;1.02;;
64353;SDS011;50681;53.334;-6.536;2022-07-29T12:10:43;2.55;;;1.02;;
64353;SDS011;50681;53.334;-6.536;2022-07-29T12:13:11;3.60;;;1.00;;
64353;SDS011;50681;53.334;-6.536;2022-07-29T12:20:38;5.07;;;1.20;;
64353;SDS011;50681;53.334;-6.536;2022-07-29T12:23:07;3.08;;;1.23;;
64353;SDS011;50681;53.334;-6.536;2022-07-29T12:25:34;2.65;;;1.08;;
64353;SDS011;50681;53.334;-6.536;2022-07-29T12:28:06;4.90;;;0.98;;
64353;SDS011;50681;53.334;-6.536;2022-07-29T12:30:41;2.20;;;0.95;;
64353;SDS011;50681;53.334;-6.536;2022-07-29T12:35:48;6.57;;;0.98;;
64353;SDS011;50681;53.334;-6.536;2022-07-29T12:38:16;2.47;;;0.82;;
64353;SDS011;50681;53.334;-6.536;2022-07-29T12:40:43;4.70;;;1.20;;
64353;SDS011;50681;53.334;-6.536;2022-07-29T12:43:10;3.60;;;1.10;;
64353;SDS011;50681;53.334;-6.536;2022-07-29T12:45:44;3.75;;;1.10;;
64353;SDS011;50681;53.334;-6.536;2022-07-29T12:48:11;6.75;;;0.88;;
64353;SDS011;50681;53.334;-6.536;2022-07-29T12:50:51;5.40;;;1.33;;
64353;SDS011;50681;53.334;-6.536;2022-07-29T12:53:25;5.85;;;1.15;;
64353;SDS011;50681;53.334;-6.536;2022-07-29T12:55:52;1.98;;;0.90;;
64353;SDS011;50681;53.334;-6.536;2022-07-29T12:58:25;4.35;;;1.08;;
64353;SDS011;50681;53.334;-6.536;2022-07-29T13:03:42;1.83;;;0.85;;
64353;SDS011;50681;53.334;-6.536;2022-07-29T13:06:26;8.18;;;0.88;;
64353;SDS011;50681;53.334;-6.536;2022-07-29T13:09:06;3.42;;;0.95;;
64353;SDS011;50681;53.334;-6.536;2022-07-29T13:14:00;6.15;;;1.15;;
64353;SDS011;50681;53.334;-6.536;2022-07-29T13:19:05;2.42;;;1.10;;
64353;SDS011;50681;53.334;-6.536;2022-07-29T13:21:35;1.88;;;0.75;;
64353;SDS011;50681;53.334;-6.536;2022-07-29T13:24:02;2.90;;;0.98;;
64353;SDS011;50681;53.334;-6.536;2022-07-29T13:28:53;1.98;;;0.75;;
64353;SDS011;50681;53.334;-6.536;2022-07-29T13:31:22;6.25;;;1.15;;
64353;SDS011;50681;53.334;-6.536;2022-07-29T13:33:48;1.98;;;0.90;;
64353;SDS011;50681;53.334;-6.536;2022-07-29T13:38:38;3.72;;;0.98;;
64353;SDS011;50681;53.334;-6.536;2022-07-29T13:41:04;2.28;;;0.75;;
64353;SDS011;50681;53.334;-6.536;2022-07-29T13:45:54;5.38;;;0.98;;
64353;SDS011;50681;53.334;-6.536;2022-07-29T13:48:20;2.17;;;0.70;;
64353;SDS011;50681;53.334;-6.536;2022-07-29T13:50:45;10.60;;;1.27;;
64353;SDS011;50681;53.334;-6.536;2022-07-29T13:53:11;11.77;;;1.48;;
64353;SDS011;50681;53.334;-6.536;2022-07-29T13:55:38;2.50;;;0.95;;
64353;SDS011;50681;53.334;-6.536;2022-07-29T14:00:28;7.05;;;1.02;;
64353;SDS011;50681;53.334;-6.536;2022-07-29T14:02:54;6.55;;;1.08;;
64353;SDS011;50681;53.334;-6.536;2022-07-29T14:05:19;2.22;;;0.95;;
64353;SDS011;50681;53.334;-6.536;2022-07-29T14:10:10;4.28;;;1.17;;
64353;SDS011;50681;53.334;-6.536;2022-07-29T14:12:36;2.58;;;1.02;;
64353;SDS011;50681;53.334;-6.536;2022-07-29T14:17:27;3.63;;;1.15;;
64353;SDS011;50681;53.334;-6.536;2022-07-29T14:19:52;2.92;;;1.23;;
64353;SDS011;50681;53.334;-6.536;2022-07-29T14:22:18;2.35;;;0.85;;
64353;SDS011;50681;53.334;-6.536;2022-07-29T14:27:09;2.83;;;0.90;;
64353;SDS011;50681;53.334;-6.536;2022-07-29T14:29:36;5.45;;;1.13;;
64353;SDS011;50681;53.334;-6.536;2022-07-29T14:34:27;1.65;;;0.77;;
64353;SDS011;50681;53.334;-6.536;2022-07-29T14:36:53;2.58;;;0.90;;
64353;SDS011;50681;53.334;-6.536;2022-07-29T14:39:21;4.32;;;0.95;;
64353;SDS011;50681;53.334;-6.536;2022-07-29T14:41:48;5.70;;;1.15;;
64353;SDS011;50681;53.334;-6.536;2022-07-29T14:46:39;4.25;;;0.93;;
64353;SDS011;50681;53.334;-6.536;2022-07-29T14:51:30;14.65;;;7.97;;
64353;SDS011;50681;53.334;-6.536;2022-07-29T14:56:21;4.72;;;1.08;;
64353;SDS011;50681;53.334;-6.536;2022-07-29T15:01:13;8.95;;;5.90;;
64353;SDS011;50681;53.334;-6.536;2022-07-29T15:06:04;20.30;;;4.50;;
64353;SDS011;50681;53.334;-6.536;2022-07-29T15:10:56;3.60;;;1.27;;
64353;SDS011;50681;53.334;-6.536;2022-07-29T15:13:24;5.00;;;1.30;;
64353;SDS011;50681;53.334;-6.536;2022-07-29T15:15:50;4.40;;;1.20;;
64353;SDS011;50681;53.334;-6.536;2022-07-29T15:20:41;8.98;;;1.60;;
64353;SDS011;50681;53.334;-6.536;2022-07-29T15:25:34;3.85;;;1.15;;
64353;SDS011;50681;53.334;-6.536;2022-07-29T15:28:01;4.63;;;1.60;;
64353;SDS011;50681;53.334;-6.536;2022-07-29T15:30:32;3.08;;;1.00;;
64353;SDS011;50681;53.334;-6.536;2022-07-29T15:32:59;3.65;;;1.17;;
64353;SDS011;50681;53.334;-6.536;2022-07-29T15:35:26;2.08;;;0.88;;
64353;SDS011;50681;53.334;-6.536;2022-07-29T15:40:16;5.28;;;1.65;;
64353;SDS011;50681;53.334;-6.536;2022-07-29T15:42:42;3.03;;;1.67;;
64353;SDS011;50681;53.334;-6.536;2022-07-29T15:45:07;3.45;;;1.10;;
64353;SDS011;50681;53.334;-6.536;2022-07-29T15:47:36;4.80;;;1.63;;
64353;SDS011;50681;53.334;-6.536;2022-07-29T15:50:02;5.05;;;2.60;;
64353;SDS011;50681;53.334;-6.536;2022-07-29T15:54:54;3.15;;;1.38;;
64353;SDS011;50681;53.334;-6.536;2022-07-29T15:57:20;5.35;;;2.65;;
64353;SDS011;50681;53.334;-6.536;2022-07-29T16:02:11;11.07;;;7.47;;
64353;SDS011;50681;53.334;-6.536;2022-07-29T16:07:02;4.68;;;1.02;;
64353;SDS011;50681;53.334;-6.536;2022-07-29T16:11:53;5.97;;;1.25;;
64353;SDS011;50681;53.334;-6.536;2022-07-29T16:14:20;5.70;;;1.38;;
64353;SDS011;50681;53.334;-6.536;2022-07-29T16:19:11;5.43;;;1.80;;
64353;SDS011;50681;53.334;-6.536;2022-07-29T16:21:36;8.70;;;1.40;;
64353;SDS011;50681;53.334;-6.536;2022-07-29T16:24:03;5.38;;;2.72;;
64353;SDS011;50681;53.334;-6.536;2022-07-29T16:26:29;4.03;;;1.98;;
64353;SDS011;50681;53.334;-6.536;2022-07-29T16:31:20;4.63;;;1.00;;
64353;SDS011;50681;53.334;-6.536;2022-07-29T16:33:47;5.95;;;1.63;;
64353;SDS011;50681;53.334;-6.536;2022-07-29T16:36:13;10.18;;;3.88;;
64353;SDS011;50681;53.334;-6.536;2022-07-29T16:41:06;44.33;;;20.88;;
64353;SDS011;50681;53.334;-6.536;2022-07-29T16:45:57;37.00;;;17.08;;
64353;SDS011;50681;53.334;-6.536;2022-07-29T16:48:22;18.13;;;8.93;;
64353;SDS011;50681;53.334;-6.536;2022-07-29T16:53:13;39.83;;;21.02;;
64353;SDS011;50681;53.334;-6.536;2022-07-29T16:55:38;20.83;;;13.77;;